createdAt,value
2022-12-28T00:00:00.193Z,76
2022-12-28T00:05:00.263Z,76
2022-12-28T00:10:00.168Z,76
2022-12-28T00:15:00.191Z,76
2022-12-28T00:20:00.217Z,76
2022-12-28T00:25:00.268Z,76
2022-12-28T00:30:00.292Z,76
2022-12-28T00:35:00.268Z,76
2022-12-28T00:40:00.269Z,76
2022-12-28T00:45:00.215Z,76
2022-12-28T00:50:00.217Z,76
2022-12-28T00:55:00.188Z,76
2022-12-28T01:00:00.183Z,76
2022-12-28T01:05:00.177Z,76
2022-12-28T01:10:00.186Z,76
2022-12-28T01:15:00.289Z,77
2022-12-28T01:20:00.174Z,77
2022-12-28T01:25:00.196Z,77
2022-12-28T01:30:00.241Z,78
2022-12-28T01:35:00.256Z,78
2022-12-28T01:40:00.252Z,78
2022-12-28T01:45:00.214Z,79
2022-12-28T01:50:00.237Z,79
2022-12-28T01:55:00.225Z,79
2022-12-28T02:00:00.239Z,79
2022-12-28T02:05:00.201Z,79
2022-12-28T02:10:42.206Z,79
2022-12-28T02:15:00.276Z,80
2022-12-28T02:20:00.222Z,80
2022-12-28T02:25:12.465Z,80
2022-12-28T02:30:00.233Z,80
2022-12-28T02:35:00.204Z,80
2022-12-28T02:40:00.233Z,80
2022-12-28T02:45:00.180Z,80
2022-12-28T02:50:00.213Z,80
2022-12-28T02:55:00.281Z,80
2022-12-28T03:00:00.248Z,80
2022-12-28T03:05:00.302Z,80
2022-12-28T03:10:00.252Z,80
2022-12-28T03:15:00.260Z,80
2022-12-28T03:20:00.202Z,80
2022-12-28T03:25:00.233Z,80
2022-12-28T03:30:00.228Z,80
2022-12-28T03:35:00.206Z,80
2022-12-28T03:40:00.279Z,80
2022-12-28T03:45:00.155Z,80
2022-12-28T03:50:00.290Z,80
2022-12-28T03:55:00.235Z,80
2022-12-28T04:00:00.333Z,81
2022-12-28T04:05:00.215Z,81
2022-12-28T04:10:00.226Z,81
2022-12-28T04:15:00.275Z,81
2022-12-28T04:20:00.292Z,81
2022-12-28T04:25:00.221Z,81
2022-12-28T04:30:00.328Z,81
2022-12-28T04:35:00.250Z,82
2022-12-28T04:40:00.243Z,82
2022-12-28T04:45:00.252Z,82
2022-12-28T04:50:00.379Z,82
2022-12-28T04:55:00.271Z,82
2022-12-28T05:00:00.260Z,82
2022-12-28T05:05:00.262Z,82
2022-12-28T05:10:00.298Z,82
2022-12-28T05:15:00.275Z,82
2022-12-28T05:20:00.241Z,82
2022-12-28T05:25:00.231Z,83
2022-12-28T05:30:00.304Z,83
2022-12-28T05:35:00.240Z,83
2022-12-28T05:40:00.248Z,83
2022-12-28T05:45:00.262Z,84
2022-12-28T05:50:00.267Z,84
2022-12-28T05:55:00.273Z,85
2022-12-28T06:00:00.288Z,85
2022-12-28T06:05:00.250Z,85
2022-12-28T06:10:00.234Z,85
2022-12-28T06:15:00.588Z,85
2022-12-28T06:20:00.298Z,85
2022-12-28T06:25:00.256Z,85
2022-12-28T06:30:00.316Z,85
2022-12-28T06:35:00.253Z,86
2022-12-28T06:40:00.287Z,86
2022-12-28T06:45:00.242Z,86
2022-12-28T06:50:00.257Z,86
2022-12-28T06:55:00.266Z,86
2022-12-28T07:00:00.327Z,86
2022-12-28T07:05:00.285Z,86
2022-12-28T07:10:00.219Z,87
2022-12-28T07:15:00.286Z,87
2022-12-28T07:20:00.333Z,87
2022-12-28T07:25:00.259Z,87
2022-12-28T07:30:01.252Z,87
2022-12-28T07:35:00.286Z,87
2022-12-28T07:40:00.249Z,87
2022-12-28T07:45:00.302Z,87
2022-12-28T07:50:00.273Z,87
2022-12-28T07:55:00.249Z,87
2022-12-28T08:00:00.516Z,87
2022-12-28T08:05:00.215Z,87
2022-12-28T08:10:00.345Z,87
2022-12-28T08:15:00.235Z,87
2022-12-28T08:20:00.330Z,87
2022-12-28T08:25:00.295Z,87
2022-12-28T08:30:00.348Z,87
2022-12-28T08:35:00.278Z,88
2022-12-28T08:40:00.322Z,88
2022-12-28T08:45:00.276Z,88
2022-12-28T08:50:00.560Z,88
2022-12-28T08:55:00.280Z,88
2022-12-28T09:00:00.303Z,88
2022-12-28T09:05:00.283Z,88
2022-12-28T09:10:00.314Z,88
2022-12-28T09:15:00.263Z,88
2022-12-28T09:20:00.300Z,88
2022-12-28T09:25:00.250Z,88
2022-12-28T09:30:00.362Z,88
2022-12-28T09:35:00.273Z,88
2022-12-28T09:40:01.734Z,88
2022-12-28T09:45:00.284Z,88
2022-12-28T09:50:00.231Z,88
2022-12-28T09:55:00.285Z,88
2022-12-28T10:00:00.298Z,88
2022-12-28T10:05:00.278Z,88
2022-12-28T10:10:00.282Z,88
2022-12-28T10:15:00.289Z,88
2022-12-28T10:20:00.307Z,88
2022-12-28T10:25:00.273Z,88
2022-12-28T10:30:00.307Z,88
2022-12-28T10:35:00.221Z,88
2022-12-28T10:40:00.474Z,88
2022-12-28T10:45:00.248Z,88
2022-12-28T10:50:35.025Z,88
2022-12-28T10:55:07.664Z,88
2022-12-28T11:00:00.299Z,88
2022-12-28T11:05:00.244Z,88
2022-12-28T11:10:00.284Z,88
2022-12-28T11:15:00.273Z,88
2022-12-28T11:20:00.320Z,88
2022-12-28T11:25:00.291Z,88
2022-12-28T11:30:00.315Z,88
2022-12-28T11:35:00.275Z,88
2022-12-28T11:40:00.231Z,88
2022-12-28T11:45:00.232Z,88
2022-12-28T11:50:00.250Z,88
2022-12-28T11:55:00.289Z,88
2022-12-28T12:00:00.321Z,88
2022-12-28T12:05:00.269Z,87
2022-12-28T12:10:00.259Z,87
2022-12-28T12:15:00.291Z,87
2022-12-28T12:20:00.231Z,87
2022-12-28T12:25:00.265Z,87
2022-12-28T12:30:00.553Z,87
2022-12-28T12:35:00.299Z,87
2022-12-28T12:40:00.303Z,87
2022-12-28T12:45:00.286Z,87
2022-12-28T12:50:00.335Z,88
2022-12-28T12:55:00.249Z,87
2022-12-28T13:00:00.331Z,87
2022-12-28T13:05:00.297Z,87
2022-12-28T13:10:00.337Z,87
2022-12-28T13:15:00.277Z,87
2022-12-28T13:20:00.313Z,87
2022-12-28T13:25:00.291Z,87
2022-12-28T13:30:00.324Z,87
2022-12-28T13:35:00.287Z,87
2022-12-28T13:40:00.270Z,87
2022-12-28T13:45:00.266Z,87
2022-12-28T13:50:00.294Z,87
2022-12-28T13:55:00.231Z,87
2022-12-28T14:00:00.318Z,87
2022-12-28T14:05:00.303Z,87
2022-12-28T14:10:00.287Z,87
2022-12-28T14:15:00.526Z,86
2022-12-28T14:20:00.329Z,86
2022-12-28T14:25:00.266Z,86
2022-12-28T14:30:00.294Z,86
2022-12-28T14:35:00.338Z,86
2022-12-28T14:40:00.280Z,85
2022-12-28T14:45:00.228Z,86
2022-12-28T14:50:00.301Z,86
2022-12-28T14:55:00.275Z,85
2022-12-28T15:00:00.251Z,85
2022-12-28T15:05:01.012Z,85
2022-12-28T15:10:00.427Z,85
2022-12-28T15:15:00.297Z,85
2022-12-28T15:20:00.271Z,85
2022-12-28T15:25:00.286Z,85
2022-12-28T15:30:07.282Z,85
2022-12-28T15:35:00.269Z,84
2022-12-28T15:40:00.298Z,84
2022-12-28T15:45:00.272Z,84
2022-12-28T15:50:00.199Z,84
2022-12-28T15:55:00.279Z,84
2022-12-28T16:00:00.316Z,83
2022-12-28T16:05:00.281Z,83
2022-12-28T16:10:00.259Z,83
2022-12-28T16:15:00.294Z,82
2022-12-28T16:20:00.208Z,83
2022-12-28T16:25:00.256Z,81
2022-12-28T16:30:00.325Z,81
2022-12-28T16:35:00.275Z,82
2022-12-28T16:40:00.196Z,81
2022-12-28T16:45:00.267Z,81
2022-12-28T16:50:00.413Z,81
2022-12-28T16:55:00.280Z,81
2022-12-28T17:00:00.500Z,81
2022-12-28T17:05:00.256Z,81
2022-12-28T17:10:00.227Z,81
2022-12-28T17:15:04.840Z,80
2022-12-28T17:20:00.248Z,80
2022-12-28T17:25:00.246Z,80
2022-12-28T17:30:00.238Z,80
2022-12-28T17:35:00.246Z,80
2022-12-28T17:40:00.338Z,79
2022-12-28T17:45:02.678Z,79
2022-12-28T17:50:00.217Z,79
2022-12-28T17:55:00.279Z,79
2022-12-28T18:00:00.326Z,79
2022-12-28T18:05:00.276Z,79
2022-12-28T18:10:00.273Z,80
2022-12-28T18:15:00.292Z,80
2022-12-28T18:20:00.341Z,80
2022-12-28T18:25:00.271Z,80
2022-12-28T18:30:00.304Z,81
2022-12-28T18:35:00.248Z,81
2022-12-28T18:40:00.306Z,81
2022-12-28T18:45:00.322Z,81
2022-12-28T18:50:00.295Z,81
2022-12-28T18:55:00.264Z,81
2022-12-28T19:00:00.346Z,81
2022-12-28T19:05:00.215Z,82
2022-12-28T19:10:02.720Z,82
2022-12-28T19:15:00.268Z,82
2022-12-28T19:20:00.260Z,82
2022-12-28T19:25:00.291Z,83
2022-12-28T19:30:00.307Z,83
2022-12-28T19:35:00.267Z,83
2022-12-28T19:40:00.275Z,83
2022-12-28T19:45:04.873Z,83
2022-12-28T19:50:00.303Z,83
2022-12-28T19:55:00.269Z,83
2022-12-28T20:00:00.328Z,84
2022-12-28T20:05:00.287Z,84
2022-12-28T20:10:00.241Z,84
2022-12-28T20:15:00.260Z,84
2022-12-28T20:20:00.300Z,84
2022-12-28T20:25:00.286Z,84
2022-12-28T20:30:00.351Z,84
2022-12-28T20:35:00.287Z,85
2022-12-28T20:40:00.303Z,85
2022-12-28T20:45:00.794Z,85
2022-12-28T20:50:00.284Z,85
2022-12-28T20:55:00.294Z,85
2022-12-28T21:00:00.304Z,85
2022-12-28T21:05:00.249Z,85
2022-12-28T21:10:00.337Z,85
2022-12-28T21:15:00.293Z,85
2022-12-28T21:20:00.316Z,85
2022-12-28T21:25:00.276Z,85
2022-12-28T21:30:00.321Z,85
2022-12-28T21:35:00.265Z,85
2022-12-28T21:40:00.303Z,85
2022-12-28T21:45:00.272Z,84
2022-12-28T21:50:00.313Z,85
2022-12-28T21:55:00.251Z,85
2022-12-28T22:00:01.792Z,85
2022-12-28T22:05:02.667Z,85
2022-12-28T22:10:00.237Z,85
2022-12-28T22:15:00.228Z,85
2022-12-28T22:20:00.257Z,85
2022-12-28T22:25:00.234Z,85
2022-12-28T22:30:00.278Z,85
2022-12-28T22:35:00.229Z,85
2022-12-28T22:40:00.325Z,85
2022-12-28T22:45:00.280Z,85
2022-12-28T22:50:00.275Z,85
2022-12-28T22:55:00.291Z,85
2022-12-28T23:00:00.312Z,85
2022-12-28T23:05:00.238Z,85
2022-12-28T23:10:00.281Z,86
2022-12-28T23:15:00.241Z,86
2022-12-28T23:20:00.244Z,86
2022-12-28T23:25:00.188Z,86
2022-12-28T23:30:00.290Z,86
2022-12-28T23:35:00.224Z,86
2022-12-28T23:40:00.271Z,86
2022-12-28T23:45:00.215Z,86
2022-12-28T23:50:00.257Z,86
2022-12-28T23:55:00.203Z,86
